createdAt,value
2018-08-06T00:00:00.083Z,1018.26
2018-08-06T00:01:00.066Z,1018.20
2018-08-06T00:02:00.035Z,1018.17
2018-08-06T00:03:00.008Z,1018.20
2018-08-06T00:03:59.984Z,1018.16
2018-08-06T00:04:59.961Z,1018.16
2018-08-06T00:05:59.942Z,1018.19
2018-08-06T00:06:59.916Z,1018.14
2018-08-06T00:07:59.891Z,1018.15
2018-08-06T00:08:59.863Z,1018.19
2018-08-06T00:09:59.839Z,1018.19
2018-08-06T00:10:59.814Z,1018.19
2018-08-06T00:11:59.790Z,1018.17
2018-08-06T00:12:59.766Z,1018.17
2018-08-06T00:13:59.742Z,1018.20
2018-08-06T00:14:59.720Z,1018.20
2018-08-06T00:15:59.693Z,1018.20
2018-08-06T00:16:59.669Z,1018.19
2018-08-06T00:17:59.650Z,1018.23
2018-08-06T00:18:59.620Z,1018.20
2018-08-06T00:19:59.601Z,1018.20
2018-08-06T00:20:59.574Z,1018.19
2018-08-06T00:21:59.549Z,1018.20
2018-08-06T00:22:59.528Z,1018.17
2018-08-06T00:23:59.500Z,1018.18
2018-08-06T00:24:59.476Z,1018.15
2018-08-06T00:25:59.453Z,1018.12
2018-08-06T00:26:59.430Z,1018.10
2018-08-06T00:27:59.406Z,1018.10
2018-08-06T00:28:59.379Z,1018.07
2018-08-06T00:29:59.356Z,1018.11
2018-08-06T00:30:59.330Z,1018.12
2018-08-06T00:31:59.307Z,1018.08
2018-08-06T00:32:59.285Z,1018.12
2018-08-06T00:33:59.259Z,1018.10
2018-08-06T00:34:59.236Z,1018.06
2018-08-06T00:35:59.210Z,1018.08
2018-08-06T00:36:59.186Z,1018.07
2018-08-06T00:37:59.162Z,1018.07
2018-08-06T00:38:59.137Z,1018.06
2018-08-06T00:39:59.113Z,1018.03
2018-08-06T00:40:59.089Z,1018.02
2018-08-06T00:41:59.064Z,1018.06
2018-08-06T00:42:59.042Z,1018.09
2018-08-06T00:43:59.016Z,1018.06
2018-08-06T00:44:58.993Z,1018.05
2018-08-06T00:45:58.968Z,1018.04
2018-08-06T00:46:58.949Z,1018.05
2018-08-06T00:47:58.924Z,1018.03
2018-08-06T00:48:58.895Z,1018.04
2018-08-06T00:49:58.870Z,1018.02
2018-08-06T00:50:58.843Z,1018.01
2018-08-06T00:51:58.821Z,1018.05
2018-08-06T00:52:58.802Z,1018.04
2018-08-06T00:53:58.773Z,1018.04
2018-08-06T00:54:58.747Z,1018.07
2018-08-06T00:55:58.724Z,1018.03
2018-08-06T00:56:58.701Z,1018.02
2018-08-06T00:57:58.675Z,1018.01
2018-08-06T00:58:58.650Z,1018.02
2018-08-06T00:59:58.626Z,1018.02
2018-08-06T01:00:58.601Z,1018.02
2018-08-06T01:01:58.577Z,1018.04
2018-08-06T01:02:58.551Z,1018.10
2018-08-06T01:03:58.532Z,1018.02
2018-08-06T01:04:58.504Z,1018.01
2018-08-06T01:05:58.480Z,1018.05
2018-08-06T01:06:58.456Z,1018.08
2018-08-06T01:07:58.431Z,1018.04
2018-08-06T01:08:58.405Z,1018.05
2018-08-06T01:09:58.381Z,1018.01
2018-08-06T01:10:58.355Z,1017.99
2018-08-06T01:11:58.537Z,1018.03
2018-08-06T01:12:58.306Z,1017.99
2018-08-06T01:13:58.284Z,1018.02
2018-08-06T01:14:58.260Z,1017.99
2018-08-06T01:15:58.239Z,1017.97
2018-08-06T01:16:58.211Z,1017.95
2018-08-06T01:17:58.196Z,1017.95
2018-08-06T01:18:58.169Z,1018.00
2018-08-06T01:19:58.136Z,1017.95
2018-08-06T01:20:58.116Z,1017.97
2018-08-06T01:21:58.088Z,1017.96
2018-08-06T01:22:58.062Z,1017.98
2018-08-06T01:23:58.037Z,1017.97
2018-08-06T01:24:58.014Z,1018.00
2018-08-06T01:25:57.989Z,1018.00
2018-08-06T01:26:57.965Z,1018.01
2018-08-06T01:27:57.944Z,1018.03
2018-08-06T01:28:57.919Z,1018.07
2018-08-06T01:29:57.892Z,1018.03
2018-08-06T01:30:57.867Z,1018.06
2018-08-06T01:31:57.842Z,1017.99
2018-08-06T01:32:57.818Z,1018.05
2018-08-06T01:33:57.794Z,1018.01
2018-08-06T01:34:57.781Z,1018.00
2018-08-06T01:35:57.761Z,1017.98
2018-08-06T01:36:57.729Z,1017.95
2018-08-06T01:37:57.706Z,1018.01
2018-08-06T01:38:57.675Z,1017.99
2018-08-06T01:39:57.652Z,1017.99
2018-08-06T01:40:57.622Z,1018.03
2018-08-06T01:41:57.600Z,1017.97
2018-08-06T01:42:57.572Z,1017.97
2018-08-06T01:43:57.548Z,1017.94
2018-08-06T01:44:57.524Z,1017.95
2018-08-06T01:45:57.508Z,1017.93
2018-08-06T01:46:57.476Z,1017.92
2018-08-06T01:47:57.450Z,1017.93
2018-08-06T01:48:57.426Z,1017.90
2018-08-06T01:49:57.402Z,1017.96
2018-08-06T01:50:57.376Z,1017.90
2018-08-06T01:51:57.352Z,1017.87
2018-08-06T01:52:57.328Z,1017.89
2018-08-06T01:53:57.304Z,1017.89
2018-08-06T01:54:57.280Z,1017.89
2018-08-06T01:55:57.253Z,1017.87
2018-08-06T01:56:57.229Z,1017.91
2018-08-06T01:57:57.208Z,1017.89
2018-08-06T01:58:57.180Z,1017.90
2018-08-06T01:59:57.155Z,1017.90
2018-08-06T02:00:57.131Z,1017.88
2018-08-06T02:01:57.105Z,1017.89
2018-08-06T02:02:57.080Z,1017.87
2018-08-06T02:03:57.056Z,1017.85
2018-08-06T02:04:57.032Z,1017.87
2018-08-06T02:05:57.007Z,1017.82
2018-08-06T02:06:56.982Z,1017.84
2018-08-06T02:07:56.958Z,1017.81
2018-08-06T02:08:56.934Z,1017.85
2018-08-06T02:09:56.909Z,1017.82
2018-08-06T02:10:56.885Z,1017.78
2018-08-06T02:11:56.859Z,1017.79
2018-08-06T02:12:56.834Z,1017.77
2018-08-06T02:13:56.810Z,1017.74
2018-08-06T02:14:56.784Z,1017.78
2018-08-06T02:15:56.759Z,1017.76
2018-08-06T02:16:56.740Z,1017.75
2018-08-06T02:17:56.710Z,1017.76
2018-08-06T02:18:56.687Z,1017.75
2018-08-06T02:19:56.661Z,1017.75
2018-08-06T02:20:56.643Z,1017.79
2018-08-06T02:21:56.613Z,1017.68
2018-08-06T02:22:56.587Z,1017.73
2018-08-06T02:23:56.561Z,1017.72
2018-08-06T02:24:56.538Z,1017.67
2018-08-06T02:25:56.515Z,1017.71
2018-08-06T02:26:56.488Z,1017.71
2018-08-06T02:27:56.467Z,1017.68
2018-08-06T02:28:56.439Z,1017.65
2018-08-06T02:29:56.416Z,1017.65
2018-08-06T02:30:56.390Z,1017.60
2018-08-06T02:31:56.365Z,1017.61
2018-08-06T02:32:56.341Z,1017.59
2018-08-06T02:33:56.315Z,1017.61
2018-08-06T02:34:56.289Z,1017.58
2018-08-06T02:35:56.268Z,1017.60
2018-08-06T02:36:56.247Z,1017.60
2018-08-06T02:37:56.219Z,1017.59
2018-08-06T02:38:56.193Z,1017.63
2018-08-06T02:39:56.167Z,1017.57
2018-08-06T02:40:56.143Z,1017.63
2018-08-06T02:41:56.121Z,1017.60
2018-08-06T02:42:56.093Z,1017.57
2018-08-06T02:43:56.071Z,1017.57
2018-08-06T02:44:56.044Z,1017.58
2018-08-06T02:45:56.024Z,1017.60
2018-08-06T02:46:55.993Z,1017.57
2018-08-06T02:47:55.968Z,1017.55
2018-08-06T02:48:55.943Z,1017.54
2018-08-06T02:49:55.919Z,1017.56
2018-08-06T02:50:55.892Z,1017.56
2018-08-06T02:51:55.870Z,1017.55
2018-08-06T02:52:55.845Z,1017.51
2018-08-06T02:53:55.820Z,1017.49
2018-08-06T02:54:55.797Z,1017.48
2018-08-06T02:55:55.770Z,1017.47
2018-08-06T02:56:55.745Z,1017.46
2018-08-06T02:57:55.719Z,1017.46
2018-08-06T02:58:55.702Z,1017.47
2018-08-06T02:59:55.671Z,1017.45
2018-08-06T03:00:55.646Z,1017.44
2018-08-06T03:01:55.622Z,1017.45
2018-08-06T03:02:55.597Z,1017.45
2018-08-06T03:03:55.571Z,1017.43
2018-08-06T03:04:55.547Z,1017.43
2018-08-06T03:05:55.521Z,1017.44
2018-08-06T03:06:55.497Z,1017.46
2018-08-06T03:07:55.472Z,1017.50
2018-08-06T03:08:55.447Z,1017.46
2018-08-06T03:09:55.453Z,1017.48
2018-08-06T03:10:55.399Z,1017.46
2018-08-06T03:11:55.380Z,1017.47
2018-08-06T03:12:55.347Z,1017.46
2018-08-06T03:13:55.323Z,1017.46
2018-08-06T03:14:55.299Z,1017.44
2018-08-06T03:15:55.277Z,1017.44
2018-08-06T03:16:55.282Z,1017.43
2018-08-06T03:17:55.230Z,1017.46
2018-08-06T03:18:55.231Z,1017.39
2018-08-06T03:19:55.172Z,1017.41
2018-08-06T03:20:55.149Z,1017.40
2018-08-06T03:21:55.124Z,1017.39
2018-08-06T03:22:55.097Z,1017.41
2018-08-06T03:23:55.076Z,1017.39
2018-08-06T03:24:55.049Z,1017.43
2018-08-06T03:25:55.025Z,1017.43
2018-08-06T03:26:55.005Z,1017.45
2018-08-06T03:27:54.978Z,1017.46
2018-08-06T03:28:54.949Z,1017.46
2018-08-06T03:29:54.925Z,1017.48
2018-08-06T03:30:54.902Z,1017.43
2018-08-06T03:31:54.893Z,1017.39
2018-08-06T03:32:54.855Z,1017.42
2018-08-06T03:33:54.826Z,1017.43
2018-08-06T03:34:54.799Z,1017.40
2018-08-06T03:35:54.774Z,1017.40
2018-08-06T03:36:54.759Z,1017.38
2018-08-06T03:37:54.725Z,1017.40
2018-08-06T03:38:54.702Z,1017.39
2018-08-06T03:39:54.676Z,1017.39
2018-08-06T03:40:54.655Z,1017.41
2018-08-06T03:41:54.629Z,1017.42
2018-08-06T03:42:54.601Z,1017.43
2018-08-06T03:43:54.577Z,1017.41
2018-08-06T03:44:54.555Z,1017.44
2018-08-06T03:45:54.526Z,1017.40
2018-08-06T03:46:54.502Z,1017.44
2018-08-06T03:47:54.475Z,1017.41
2018-08-06T03:48:54.454Z,1017.40
2018-08-06T03:49:54.426Z,1017.40
2018-08-06T03:50:54.400Z,1017.41
2018-08-06T03:51:54.375Z,1017.43
2018-08-06T03:52:54.424Z,1017.41
2018-08-06T03:53:54.326Z,1017.43
2018-08-06T03:54:54.300Z,1017.42
2018-08-06T03:55:54.280Z,1017.38
2018-08-06T03:56:54.252Z,1017.38
2018-08-06T03:57:54.227Z,1017.43
2018-08-06T03:58:54.202Z,1017.41
2018-08-06T03:59:54.177Z,1017.43
2018-08-06T04:00:54.154Z,1017.43
2018-08-06T04:01:54.126Z,1017.43
2018-08-06T04:02:54.103Z,1017.40
2018-08-06T04:03:54.077Z,1017.41
2018-08-06T04:04:54.053Z,1017.42
2018-08-06T04:05:54.030Z,1017.42
2018-08-06T04:06:54.002Z,1017.46
2018-08-06T04:07:53.977Z,1017.44
2018-08-06T04:08:53.952Z,1017.46
2018-08-06T04:09:53.928Z,1017.48
2018-08-06T04:10:53.903Z,1017.47
2018-08-06T04:11:53.879Z,1017.42
2018-08-06T04:12:53.854Z,1017.49
2018-08-06T04:13:53.830Z,1017.47
2018-08-06T04:14:53.804Z,1017.44
2018-08-06T04:15:53.785Z,1017.51
2018-08-06T04:16:53.755Z,1017.50
2018-08-06T04:17:53.732Z,1017.51
2018-08-06T04:18:53.705Z,1017.50
2018-08-06T04:19:53.682Z,1017.52
2018-08-06T04:20:53.657Z,1017.60
2018-08-06T04:21:53.633Z,1017.57
2018-08-06T04:22:53.618Z,1017.58
2018-08-06T04:23:53.585Z,1017.60
2018-08-06T04:24:53.559Z,1017.60
2018-08-06T04:25:53.540Z,1017.63
2018-08-06T04:26:53.510Z,1017.65
2018-08-06T04:27:53.485Z,1017.66
2018-08-06T04:28:53.462Z,1017.68
2018-08-06T04:29:53.437Z,1017.73
2018-08-06T04:30:53.472Z,1017.72
2018-08-06T04:31:53.401Z,1017.69
2018-08-06T04:32:53.477Z,1017.72
2018-08-06T04:33:53.364Z,1017.78
2018-08-06T04:34:53.320Z,1017.76
2018-08-06T04:35:53.295Z,1017.83
2018-08-06T04:36:53.277Z,1017.83
2018-08-06T04:37:53.249Z,1017.86
2018-08-06T04:38:53.221Z,1017.86
2018-08-06T04:39:53.199Z,1017.88
2018-08-06T04:40:53.180Z,1017.89
2018-08-06T04:41:53.152Z,1017.85
2018-08-06T04:42:53.128Z,1017.88
2018-08-06T04:43:53.105Z,1017.84
2018-08-06T04:44:53.089Z,1017.83
2018-08-06T04:45:53.108Z,1017.76
2018-08-06T04:46:53.053Z,1017.79
2018-08-06T04:47:53.060Z,1017.75
2018-08-06T04:48:52.992Z,1017.75
2018-08-06T04:49:53.167Z,1017.71
2018-08-06T04:50:52.940Z,1017.73
2018-08-06T04:51:52.917Z,1017.72
2018-08-06T04:52:52.896Z,1017.69
2018-08-06T04:53:52.875Z,1017.72
2018-08-06T04:54:52.846Z,1017.72
2018-08-06T04:55:52.823Z,1017.78
2018-08-06T04:56:52.801Z,1017.80
2018-08-06T04:57:52.789Z,1017.82
2018-08-06T04:58:52.753Z,1017.83
2018-08-06T05:01:59.389Z,1017.88
2018-08-06T05:02:59.366Z,1017.94
2018-08-06T05:03:59.145Z,1017.98
2018-08-06T05:04:59.119Z,1017.95
2018-08-06T05:05:59.095Z,1017.94
2018-08-06T05:06:59.098Z,1017.97
2018-08-06T05:07:59.053Z,1018.00
2018-08-06T05:08:59.027Z,1018.06
2018-08-06T05:09:59.003Z,1018.06
2018-08-06T05:10:58.982Z,1017.98
2018-08-06T05:11:58.975Z,1018.01
2018-08-06T05:13:41.133Z,1017.98
2018-08-06T05:14:41.065Z,1017.99
2018-08-06T05:21:36.289Z,1018.10
2018-08-06T05:22:36.071Z,1018.12
2018-08-06T05:23:36.051Z,1018.22
2018-08-06T05:24:36.021Z,1018.40
2018-08-06T05:25:35.999Z,1018.54
2018-08-06T05:26:35.976Z,1018.67
2018-08-06T05:27:35.956Z,1018.55
2018-08-06T05:28:35.933Z,1018.45
2018-08-06T05:29:35.911Z,1018.43
2018-08-06T05:30:35.888Z,1018.44
2018-08-06T05:31:36.069Z,1018.48
2018-08-06T05:32:35.846Z,1018.58
2018-08-06T05:33:35.822Z,1018.77
2018-08-06T05:34:35.800Z,1018.79
2018-08-06T05:35:35.779Z,1018.86
2018-08-06T05:36:35.760Z,1018.91
2018-08-06T05:37:35.735Z,1018.92
2018-08-06T05:38:35.713Z,1019.09
2018-08-06T05:39:35.690Z,1019.53
2018-08-06T05:40:35.670Z,1019.43
2018-08-06T05:41:35.648Z,1018.93
2018-08-06T05:42:35.626Z,1018.59
2018-08-06T05:43:35.605Z,1018.51
2018-08-06T05:44:35.592Z,1018.55
2018-08-06T05:45:35.563Z,1018.61
2018-08-06T05:46:35.541Z,1018.60
2018-08-06T05:47:35.519Z,1018.63
2018-08-06T05:48:35.498Z,1018.63
2018-08-06T05:49:35.476Z,1018.59
2018-08-06T05:50:35.459Z,1018.63
2018-08-06T05:51:35.635Z,1018.60
2018-08-06T05:52:35.412Z,1018.62
2018-08-06T05:53:35.392Z,1018.63
2018-08-06T05:54:35.370Z,1018.62
2018-08-06T05:55:35.349Z,1018.66
2018-08-06T05:56:35.336Z,1018.64
2018-08-06T05:57:35.308Z,1018.71
2018-08-06T05:58:35.329Z,1018.74
2018-08-06T05:59:35.266Z,1018.75
2018-08-06T06:00:35.245Z,1018.74
2018-08-06T06:01:35.225Z,1018.75
2018-08-06T06:02:35.212Z,1018.78
2018-08-06T06:03:35.182Z,1018.79
2018-08-06T06:04:35.166Z,1018.75
2018-08-06T06:05:35.143Z,1018.80
2018-08-06T06:06:35.123Z,1018.84
2018-08-06T06:07:35.103Z,1018.82
2018-08-06T06:08:35.083Z,1018.84
2018-08-06T06:09:35.062Z,1018.86
2018-08-06T06:10:35.052Z,1018.77
2018-08-06T06:11:35.022Z,1018.79
2018-08-06T06:12:35.002Z,1018.81
2018-08-06T06:13:34.982Z,1018.95
2018-08-06T06:14:34.966Z,1018.90
2018-08-06T06:15:34.943Z,1018.91
2018-08-06T06:16:34.924Z,1018.90
2018-08-06T06:17:34.904Z,1018.98
2018-08-06T06:18:34.883Z,1019.12
2018-08-06T06:19:34.863Z,1019.25
2018-08-06T06:20:34.846Z,1019.38
2018-08-06T06:21:34.825Z,1019.32
2018-08-06T06:22:34.808Z,1019.35
2018-08-06T06:23:34.786Z,1019.44
2018-08-06T06:24:34.767Z,1019.41
2018-08-06T06:25:34.751Z,1019.58
2018-08-06T06:26:34.930Z,1019.59
2018-08-06T06:27:34.912Z,1019.67
2018-08-06T06:28:34.986Z,1019.70
2018-08-06T06:29:34.876Z,1019.84
2018-08-06T06:30:34.655Z,1020.01
2018-08-06T06:31:34.639Z,1020.23
2018-08-06T06:32:34.817Z,1020.23
2018-08-06T06:34:16.954Z,1020.02
2018-08-06T06:35:16.741Z,1019.95
2018-08-06T06:36:16.716Z,1019.92
2018-08-06T06:37:16.695Z,1019.93
2018-08-06T06:38:19.565Z,1020.19
2018-08-06T06:39:16.665Z,1020.19
2018-08-06T06:40:16.645Z,1019.88
2018-08-06T06:41:16.823Z,1019.81
2018-08-06T06:42:16.603Z,1019.91
2018-08-06T06:43:16.587Z,1020.01
2018-08-06T06:44:16.567Z,1019.99
2018-08-06T06:45:16.547Z,1019.97
2018-08-06T06:46:16.731Z,1019.89
2018-08-06T06:47:16.515Z,1019.91
2018-08-06T06:48:16.494Z,1020.02
2018-08-06T06:49:16.488Z,1020.07
2018-08-06T06:50:16.456Z,1019.88
2018-08-06T06:51:16.640Z,1019.77
2018-08-06T06:52:16.420Z,1019.95
2018-08-06T06:53:16.402Z,1019.96
2018-08-06T06:54:16.662Z,1019.92
2018-08-06T06:55:16.368Z,1019.89
2018-08-06T06:56:16.348Z,1019.84
2018-08-06T06:57:16.331Z,1019.86
2018-08-06T06:58:16.313Z,1019.85
2018-08-06T06:59:16.301Z,1019.90
2018-08-06T07:00:58.638Z,1019.82
2018-08-06T07:01:58.631Z,1019.82
2018-08-06T07:07:56.119Z,1019.69
2018-08-06T07:08:53.681Z,1019.82
2018-08-06T07:09:53.664Z,1019.88
2018-08-06T07:10:53.447Z,1019.83
2018-08-06T07:11:53.428Z,1019.82
2018-08-06T07:12:53.410Z,1019.78
2018-08-06T07:13:53.500Z,1019.78
2018-08-06T07:14:56.199Z,1019.73
2018-08-06T07:15:53.563Z,1019.77
2018-08-06T07:16:53.548Z,1019.77
2018-08-06T07:17:53.529Z,1019.67
2018-08-06T07:18:53.514Z,1019.69
2018-08-06T07:19:53.296Z,1019.74
2018-08-06T07:20:53.478Z,1019.67
2018-08-06T07:21:53.268Z,1019.62
2018-08-06T07:22:53.245Z,1019.58
2018-08-06T07:23:53.431Z,1019.63
2018-08-06T07:24:53.213Z,1019.62
2018-08-06T07:25:53.444Z,1019.53
2018-08-06T07:26:53.181Z,1019.50
2018-08-06T07:27:53.165Z,1019.54
2018-08-06T07:28:54.158Z,1019.47
2018-08-06T07:29:53.334Z,1019.57
2018-08-06T07:32:20.661Z,1019.43
2018-08-06T07:43:07.887Z,1019.25
2018-08-06T07:44:07.811Z,1019.23
2018-08-06T07:45:49.955Z,1019.24
2018-08-06T07:46:49.735Z,1019.19
2018-08-06T07:48:32.089Z,1019.16
2018-08-06T07:49:32.078Z,1019.15
2018-08-06T07:50:34.671Z,1019.12
2018-08-06T07:51:32.035Z,1019.13
2018-08-06T07:52:32.020Z,1019.14
2018-08-06T07:53:32.011Z,1019.08
2018-08-06T07:54:31.988Z,1019.05
2018-08-06T07:55:31.971Z,1019.10
2018-08-06T08:29:33.403Z,1018.96
2018-08-06T08:30:33.189Z,1018.97
2018-08-06T08:31:33.372Z,1018.97
2018-08-06T08:32:33.364Z,1018.90
2018-08-06T08:34:57.676Z,1018.81
2018-08-06T08:35:57.649Z,1018.85
2018-08-06T08:36:57.636Z,1018.82
2018-08-06T08:38:00.043Z,1018.74
2018-08-06T08:39:00.229Z,1018.78
2018-08-06T08:39:57.596Z,1018.78
2018-08-06T08:43:05.074Z,1018.67
2018-08-06T08:44:04.051Z,1018.79
2018-08-06T08:45:03.839Z,1018.74
2018-08-06T08:46:03.827Z,1018.73
2018-08-06T08:47:04.006Z,1018.72
2018-08-06T08:48:03.991Z,1018.67
2018-08-06T08:49:04.382Z,1018.63
2018-08-06T08:50:46.126Z,1018.66
2018-08-06T08:51:46.111Z,1018.59
2018-08-06T08:52:46.104Z,1018.53
2018-08-06T08:53:45.897Z,1018.56
2018-08-06T08:55:28.236Z,1018.55
2018-08-06T08:56:28.021Z,1018.55
2018-08-06T08:57:30.826Z,1018.55
2018-08-06T08:58:28.202Z,1018.54
2018-08-06T08:59:28.184Z,1018.53
2018-08-06T09:00:27.963Z,1018.52
2018-08-06T09:01:28.154Z,1018.55
2018-08-06T09:05:16.782Z,1018.60
2018-08-06T09:08:23.254Z,1018.70
2018-08-06T09:09:23.239Z,1018.74
2018-08-06T09:10:23.233Z,1018.80
2018-08-06T09:11:23.012Z,1018.84
2018-08-06T09:12:23.017Z,1018.85
2018-08-06T09:13:22.986Z,1018.82
2018-08-06T09:14:23.176Z,1018.74
2018-08-06T09:15:27.006Z,1018.60
2018-08-06T09:16:23.152Z,1018.40
2018-08-06T09:17:23.138Z,1018.27
2018-08-06T09:18:22.923Z,1018.15
2018-08-06T09:53:48.971Z,1016.87
2018-08-06T09:54:48.753Z,1016.85
2018-08-06T09:55:48.740Z,1016.85
2018-08-06T09:56:48.729Z,1016.83
2018-08-06T09:57:48.924Z,1016.79
2018-08-06T09:58:48.701Z,1016.81
2018-08-06T09:59:48.689Z,1016.77
2018-08-06T10:00:48.677Z,1016.77
2018-08-06T10:03:13.191Z,1016.70
2018-08-06T10:04:13.188Z,1016.77
2018-08-06T10:05:12.963Z,1016.74
2018-08-06T10:15:21.253Z,1016.58
2018-08-06T10:16:21.041Z,1016.59
2018-08-06T10:17:21.060Z,1016.62
2018-08-06T10:31:00.120Z,1016.48
2018-08-06T10:31:59.904Z,1016.44
2018-08-06T10:32:59.894Z,1016.38
2018-08-06T10:33:59.881Z,1016.41
2018-08-06T10:34:59.870Z,1016.38
2018-08-06T10:35:59.856Z,1016.42
2018-08-06T10:36:59.844Z,1016.41
2018-08-06T10:37:59.833Z,1016.29
2018-08-06T10:39:00.032Z,1016.38
2018-08-06T11:01:04.869Z,1016.37
2018-08-06T11:02:04.658Z,1016.41
2018-08-06T11:03:04.647Z,1016.37
2018-08-06T11:04:04.645Z,1016.39
2018-08-06T11:05:04.620Z,1016.37
2018-08-06T11:09:38.245Z,1016.30
2018-08-06T11:10:35.410Z,1016.37
2018-08-06T11:11:35.399Z,1016.36
2018-08-06T11:13:17.757Z,1016.41
2018-08-06T11:14:17.594Z,1016.43
2018-08-06T11:15:17.735Z,1016.47
2018-08-06T11:16:17.725Z,1016.52
2018-08-06T11:17:17.713Z,1016.59
2018-08-06T11:18:17.701Z,1016.65
2018-08-06T11:19:17.699Z,1016.65
2018-08-06T11:20:17.690Z,1016.66
2018-08-06T11:21:17.673Z,1016.69
2018-08-06T11:22:17.665Z,1016.66
2018-08-06T11:23:17.652Z,1016.70
2018-08-06T11:24:17.439Z,1016.74
2018-08-06T11:25:17.430Z,1016.81
2018-08-06T11:26:17.676Z,1016.87
2018-08-06T11:27:20.913Z,1016.86
2018-08-06T11:28:17.611Z,1016.84
2018-08-06T11:29:17.390Z,1016.85
2018-08-06T11:30:17.380Z,1016.81
2018-08-06T11:31:17.369Z,1016.80
2018-08-06T11:32:17.360Z,1016.83
2018-08-06T11:33:17.351Z,1016.74
2018-08-06T11:34:17.339Z,1016.73
2018-08-06T11:35:17.547Z,1016.70
2018-08-06T11:36:17.321Z,1016.74
2018-08-06T11:37:17.328Z,1016.75
2018-08-06T11:38:17.301Z,1016.70
2018-08-06T11:39:17.291Z,1016.71
2018-08-06T11:40:17.286Z,1016.68
2018-08-06T11:41:17.273Z,1016.67
2018-08-06T11:42:17.264Z,1016.64
2018-08-06T11:43:17.255Z,1016.64
2018-08-06T11:44:17.245Z,1016.51
2018-08-06T11:45:17.247Z,1016.56
2018-08-06T11:46:17.227Z,1016.48
2018-08-06T11:47:17.216Z,1016.61
2018-08-06T11:48:17.212Z,1016.38
2018-08-06T11:49:17.200Z,1016.44
2018-08-06T11:50:17.189Z,1016.47
2018-08-06T11:51:17.179Z,1016.46
2018-08-06T11:52:17.168Z,1016.46
2018-08-06T11:53:17.160Z,1016.48
2018-08-06T11:54:17.151Z,1016.48
2018-08-06T11:55:17.142Z,1016.42
2018-08-06T11:56:17.332Z,1016.40
2018-08-06T11:57:17.324Z,1016.37
2018-08-06T11:58:19.932Z,1016.36
2018-08-06T11:59:17.308Z,1016.20
2018-08-06T12:00:17.899Z,1016.21
2018-08-06T12:01:17.283Z,1016.15
2018-08-06T12:02:17.273Z,1016.10
2018-08-06T12:03:17.264Z,1016.08
2018-08-06T12:04:17.063Z,1015.99
2018-08-06T12:05:17.244Z,1016.10
2018-08-06T12:06:17.032Z,1016.12
2018-08-06T12:07:17.024Z,1016.11
2018-08-06T12:08:17.220Z,1016.06
2018-08-06T12:09:19.646Z,1016.01
2018-08-06T12:10:18.413Z,1015.97
2018-08-06T12:11:17.187Z,1015.96
2018-08-06T12:12:16.976Z,1015.79
2018-08-06T12:13:59.333Z,1015.70
2018-08-06T12:14:59.325Z,1015.71
2018-08-06T12:16:01.938Z,1015.73
2018-08-06T12:16:59.103Z,1015.69
2018-08-06T12:19:23.625Z,1015.67
2018-08-06T12:20:23.623Z,1015.61
2018-08-06T12:21:23.606Z,1015.60
2018-08-06T12:22:23.619Z,1015.62
2018-08-06T12:23:23.386Z,1015.63
2018-08-06T12:25:05.744Z,1015.65
2018-08-06T12:26:05.812Z,1015.67
2018-08-06T12:27:47.890Z,1015.61
2018-08-06T12:28:47.879Z,1015.66
2018-08-06T12:29:47.875Z,1015.71
2018-08-06T12:30:47.878Z,1015.82
2018-08-06T12:31:47.864Z,1015.76
2018-08-06T12:32:47.656Z,1015.74
2018-08-06T12:33:47.633Z,1015.78
2018-08-06T12:35:29.991Z,1015.84
2018-08-06T12:36:29.781Z,1015.86
2018-08-06T13:13:20.285Z,1015.88
2018-08-06T13:14:20.273Z,1015.87
2018-08-06T13:15:20.262Z,1015.73
2018-08-06T13:16:20.060Z,1015.18
2018-08-06T13:17:20.050Z,1014.82
2018-08-06T13:18:20.028Z,1015.27
2018-08-06T13:19:20.272Z,1015.64
2018-08-06T13:20:20.009Z,1015.75
2018-08-06T13:21:19.997Z,1015.79
2018-08-06T13:22:19.986Z,1015.76
2018-08-06T13:23:19.983Z,1015.84
2018-08-06T13:24:19.972Z,1015.82
2018-08-06T13:25:20.205Z,1015.78
2018-08-06T13:26:20.148Z,1015.77
2018-08-06T13:27:19.936Z,1015.82
2018-08-06T13:28:20.128Z,1015.75
2018-08-06T13:29:20.125Z,1015.75
2018-08-06T13:30:20.118Z,1015.81
2018-08-06T13:31:19.938Z,1015.88
2018-08-06T13:32:19.887Z,1016.00
2018-08-06T13:33:19.876Z,1015.96
2018-08-06T13:34:19.870Z,1015.93
2018-08-06T13:35:19.857Z,1015.90
2018-08-06T13:36:19.848Z,1015.93
2018-08-06T13:37:19.838Z,1016.00
2018-08-06T13:38:20.030Z,1016.17
2018-08-06T13:39:20.019Z,1016.34
2018-08-06T13:40:19.810Z,1016.36
2018-08-06T13:41:19.806Z,1016.32
2018-08-06T13:42:19.791Z,1016.36
2018-08-06T13:43:19.780Z,1016.42
2018-08-06T13:44:19.826Z,1016.50
2018-08-06T13:45:19.768Z,1016.51
2018-08-06T13:46:19.749Z,1016.48
2018-08-06T13:47:19.743Z,1016.75
2018-08-06T13:48:19.733Z,1016.92
2018-08-06T13:49:19.723Z,1016.91
2018-08-06T13:51:02.078Z,1016.92
2018-08-06T13:52:01.866Z,1016.81
2018-08-06T13:53:02.095Z,1016.79
2018-08-06T13:54:01.851Z,1016.86
2018-08-06T13:55:02.040Z,1016.83
2018-08-06T13:56:02.033Z,1016.92
2018-08-06T13:57:01.821Z,1016.84
2018-08-06T13:58:01.816Z,1016.98
2018-08-06T13:59:01.821Z,1016.80
2018-08-06T14:00:01.797Z,1016.84
2018-08-06T14:01:01.786Z,1017.03
2018-08-06T14:02:01.775Z,1017.26
2018-08-06T14:03:05.402Z,1017.22
2018-08-06T14:04:04.579Z,1017.06
2018-08-06T14:05:01.949Z,1017.18
2018-08-06T14:06:01.955Z,1017.40
2018-08-06T14:07:01.970Z,1017.31
2018-08-06T14:08:43.885Z,1017.26
2018-08-06T14:09:43.870Z,1017.34
2018-08-06T14:10:43.860Z,1017.50
2018-08-06T14:11:44.056Z,1017.43
2018-08-06T14:12:44.054Z,1017.49
2018-08-06T14:13:44.235Z,1017.39
2018-08-06T14:14:44.028Z,1017.42
2018-08-06T14:15:44.014Z,1017.17
2018-08-06T14:16:43.857Z,1017.21
2018-08-06T14:17:43.791Z,1017.38
2018-08-06T14:18:43.781Z,1017.43
2018-08-06T14:19:43.976Z,1017.34
2018-08-06T14:20:43.778Z,1017.28
2018-08-06T14:21:43.952Z,1017.42
2018-08-06T14:22:43.742Z,1017.48
2018-08-06T14:23:43.734Z,1017.09
2018-08-06T14:24:43.927Z,1015.82
2018-08-06T14:25:43.915Z,1014.82
2018-08-06T14:26:43.713Z,1014.56
2018-08-06T14:27:43.894Z,1014.36
2018-08-06T14:28:43.692Z,1014.24
2018-08-06T14:29:43.871Z,1014.12
2018-08-06T14:30:43.659Z,1014.19
2018-08-06T14:31:43.857Z,1014.24
2018-08-06T14:32:43.640Z,1014.16
2018-08-06T14:33:43.830Z,1014.16
2018-08-06T14:34:43.624Z,1014.13
2018-08-06T14:35:43.609Z,1014.14
2018-08-06T14:36:43.796Z,1014.11
2018-08-06T14:37:43.585Z,1014.16
2018-08-06T14:38:43.589Z,1014.07
2018-08-06T14:40:25.925Z,1013.99
2018-08-06T14:42:08.427Z,1013.93
2018-08-06T14:44:35.010Z,1013.82
2018-08-06T14:45:32.377Z,1013.75
2018-08-06T14:46:32.364Z,1013.72
2018-08-06T14:48:14.519Z,1013.76
2018-08-06T14:49:14.312Z,1013.75
2018-08-06T14:50:14.292Z,1013.67
2018-08-06T14:51:14.278Z,1013.61
2018-08-06T14:56:27.487Z,1013.54
2018-08-06T14:57:27.425Z,1013.51
2018-08-06T14:58:27.412Z,1013.51
2018-08-06T15:02:16.095Z,1013.39
2018-08-06T15:03:15.844Z,1013.31
2018-08-06T15:04:15.820Z,1013.48
2018-08-06T15:08:04.653Z,1013.40
2018-08-06T15:09:04.665Z,1013.38
2018-08-06T15:12:11.524Z,1013.31
2018-08-06T15:13:53.259Z,1013.27
2018-08-06T15:14:53.058Z,1013.23
2018-08-06T15:15:53.248Z,1013.22
2018-08-06T15:16:53.257Z,1013.22
2018-08-06T15:17:52.995Z,1013.26
2018-08-06T15:18:53.003Z,1013.21
2018-08-06T15:19:55.794Z,1013.17
2018-08-06T15:21:35.317Z,1013.15
2018-08-06T15:22:36.115Z,1013.21
2018-08-06T15:46:46.560Z,1012.94
2018-08-06T15:47:46.356Z,1012.87
2018-08-06T15:48:46.335Z,1012.81
2018-08-06T15:49:46.315Z,1012.87
2018-08-06T15:50:46.301Z,1012.84
2018-08-06T15:51:46.287Z,1012.80
2018-08-06T15:52:46.273Z,1012.79
2018-08-06T15:53:46.261Z,1012.86
2018-08-06T15:54:46.247Z,1012.83
2018-08-06T15:55:49.664Z,1012.81
2018-08-06T15:56:46.420Z,1012.82
2018-08-06T15:57:46.412Z,1012.79
2018-08-06T15:58:46.394Z,1012.75
2018-08-06T15:59:46.177Z,1012.73